sensor_id;sensor_type;location;lat;lon;timestamp;pressure;altitude;pressure_sealevel;temperature;humidity
57192;BME280;43052;52.588;13.396;2023-05-08T00:00:29;102278.94;;;7.35;69.12
57192;BME280;43052;52.588;13.396;2023-05-08T00:02:54;102276.47;;;7.40;68.80
57192;BME280;43052;52.588;13.396;2023-05-08T00:05:19;102280.78;;;7.39;68.67
57192;BME280;43052;52.588;13.396;2023-05-08T00:07:45;102272.94;;;7.37;68.85
57192;BME280;43052;52.588;13.396;2023-05-08T00:10:10;102272.75;;;7.31;68.77
57192;BME280;43052;52.588;13.396;2023-05-08T00:12:35;102278.03;;;7.34;68.90
57192;BME280;43052;52.588;13.396;2023-05-08T00:15:02;102266.63;;;7.31;68.79
57192;BME280;43052;52.588;13.396;2023-05-08T00:17:27;102262.19;;;7.27;68.78
57192;BME280;43052;52.588;13.396;2023-05-08T00:19:53;102265.56;;;7.24;69.11
57192;BME280;43052;52.588;13.396;2023-05-08T00:22:18;102259.44;;;7.22;68.74
57192;BME280;43052;52.588;13.396;2023-05-08T00:24:44;102262.88;;;7.21;68.93
57192;BME280;43052;52.588;13.396;2023-05-08T00:27:10;102272.38;;;7.20;68.96
57192;BME280;43052;52.588;13.396;2023-05-08T00:29:35;102279.25;;;7.18;69.37
57192;BME280;43052;52.588;13.396;2023-05-08T00:32:01;102277.50;;;7.17;69.36
57192;BME280;43052;52.588;13.396;2023-05-08T00:34:26;102284.38;;;7.15;69.23
57192;BME280;43052;52.588;13.396;2023-05-08T00:36:51;102279.19;;;7.17;69.33
57192;BME280;43052;52.588;13.396;2023-05-08T00:39:17;102276.63;;;7.18;68.89
57192;BME280;43052;52.588;13.396;2023-05-08T00:41:42;102286.19;;;7.18;69.00
57192;BME280;43052;52.588;13.396;2023-05-08T00:44:08;102279.03;;;7.12;69.06
57192;BME280;43052;52.588;13.396;2023-05-08T00:46:34;102285.81;;;7.07;69.02
57192;BME280;43052;52.588;13.396;2023-05-08T00:49:00;102286.63;;;7.04;68.91
57192;BME280;43052;52.588;13.396;2023-05-08T00:51:26;102289.25;;;7.06;68.91
57192;BME280;43052;52.588;13.396;2023-05-08T00:53:52;102288.31;;;7.04;68.60
57192;BME280;43052;52.588;13.396;2023-05-08T00:56:17;102290.81;;;7.01;68.88
57192;BME280;43052;52.588;13.396;2023-05-08T00:58:44;102291.81;;;7.04;68.67
57192;BME280;43052;52.588;13.396;2023-05-08T01:01:10;102297.94;;;7.06;68.18
57192;BME280;43052;52.588;13.396;2023-05-08T01:03:36;102304.91;;;7.08;68.24
57192;BME280;43052;52.588;13.396;2023-05-08T01:06:03;102295.13;;;7.00;68.23
57192;BME280;43052;52.588;13.396;2023-05-08T01:08:30;102292.41;;;6.97;68.39
57192;BME280;43052;52.588;13.396;2023-05-08T01:11:11;102301.00;;;6.95;68.36
57192;BME280;43052;52.588;13.396;2023-05-08T01:17:37;102291.44;;;6.94;68.76
57192;BME280;43052;52.588;13.396;2023-05-08T01:20:29;102300.03;;;6.91;68.35
57192;BME280;43052;52.588;13.396;2023-05-08T01:23:16;102300.81;;;6.88;68.38
57192;BME280;43052;52.588;13.396;2023-05-08T01:26:19;102296.28;;;6.83;68.40
57192;BME280;43052;52.588;13.396;2023-05-08T01:29:05;102302.22;;;6.79;68.46
57192;BME280;43052;52.588;13.396;2023-05-08T01:34:43;102296.59;;;6.66;69.03
57192;BME280;43052;52.588;13.396;2023-05-08T01:37:14;102302.50;;;6.62;69.31
57192;BME280;43052;52.588;13.396;2023-05-08T01:39:55;102294.59;;;6.59;69.21
57192;BME280;43052;52.588;13.396;2023-05-08T01:42:43;102298.69;;;6.52;69.69
57192;BME280;43052;52.588;13.396;2023-05-08T01:45:15;102309.94;;;6.53;69.36
57192;BME280;43052;52.588;13.396;2023-05-08T01:47:43;102308.03;;;6.47;69.64
57192;BME280;43052;52.588;13.396;2023-05-08T01:50:21;102308.91;;;6.48;69.86
57192;BME280;43052;52.588;13.396;2023-05-08T01:52:50;102310.66;;;6.47;70.10
57192;BME280;43052;52.588;13.396;2023-05-08T01:55:24;102310.66;;;6.47;69.65
57192;BME280;43052;52.588;13.396;2023-05-08T01:57:53;102303.38;;;6.38;69.74
57192;BME280;43052;52.588;13.396;2023-05-08T02:00:21;102315.38;;;6.35;70.40
57192;BME280;43052;52.588;13.396;2023-05-08T02:02:48;102308.25;;;6.29;70.03
57192;BME280;43052;52.588;13.396;2023-05-08T02:05:15;102304.66;;;6.25;70.50
57192;BME280;43052;52.588;13.396;2023-05-08T02:07:44;102307.97;;;6.21;70.36
57192;BME280;43052;52.588;13.396;2023-05-08T02:10:11;102319.19;;;6.20;70.47
57192;BME280;43052;52.588;13.396;2023-05-08T02:12:37;102319.13;;;6.19;70.52
57192;BME280;43052;52.588;13.396;2023-05-08T02:15:04;102316.34;;;6.14;70.55
57192;BME280;43052;52.588;13.396;2023-05-08T02:17:32;102319.66;;;6.10;70.79
57192;BME280;43052;52.588;13.396;2023-05-08T02:20:00;102322.13;;;6.07;70.93
57192;BME280;43052;52.588;13.396;2023-05-08T02:22:28;102313.31;;;6.02;71.10
57192;BME280;43052;52.588;13.396;2023-05-08T02:24:55;102307.00;;;5.96;70.95
57192;BME280;43052;52.588;13.396;2023-05-08T02:27:23;102307.94;;;5.99;71.05
57192;BME280;43052;52.588;13.396;2023-05-08T02:29:50;102312.25;;;5.98;71.17
57192;BME280;43052;52.588;13.396;2023-05-08T02:32:17;102311.31;;;5.96;71.28
57192;BME280;43052;52.588;13.396;2023-05-08T02:34:43;102313.78;;;5.93;71.13
57192;BME280;43052;52.588;13.396;2023-05-08T02:37:21;102302.16;;;5.83;71.16
57192;BME280;43052;52.588;13.396;2023-05-08T02:40:09;102300.41;;;5.82;71.17
57192;BME280;43052;52.588;13.396;2023-05-08T02:42:42;102281.03;;;5.74;71.50
57192;BME280;43052;52.588;13.396;2023-05-08T02:45:13;102280.03;;;5.70;71.32
57192;BME280;43052;52.588;13.396;2023-05-08T02:47:45;102298.50;;;5.78;71.28
57192;BME280;43052;52.588;13.396;2023-05-08T02:50:27;102278.59;;;5.56;71.74
57192;BME280;43052;52.588;13.396;2023-05-08T02:53:06;102280.91;;;5.48;71.87
57192;BME280;43052;52.588;13.396;2023-05-08T02:55:55;102302.13;;;5.60;72.26
57192;BME280;43052;52.588;13.396;2023-05-08T02:59:27;102291.88;;;5.41;72.40
57192;BME280;43052;52.588;13.396;2023-05-08T03:09:11;102289.66;;;5.08;72.62
57192;BME280;43052;52.588;13.396;2023-05-08T03:11:51;102308.69;;;5.08;72.90
57192;BME280;43052;52.588;13.396;2023-05-08T03:14:22;102294.25;;;4.94;72.80
57192;BME280;43052;52.588;13.396;2023-05-08T03:16:54;102316.16;;;5.00;73.07
57192;BME280;43052;52.588;13.396;2023-05-08T03:19:30;102290.44;;;4.85;73.20
57192;BME280;43052;52.588;13.396;2023-05-08T03:22:04;102291.09;;;4.80;73.46
57192;BME280;43052;52.588;13.396;2023-05-08T03:25:52;102318.34;;;4.91;73.88
57192;BME280;43052;52.588;13.396;2023-05-08T03:28:22;102292.03;;;4.82;74.09
57192;BME280;43052;52.588;13.396;2023-05-08T03:30:49;102313.97;;;4.90;74.22
57192;BME280;43052;52.588;13.396;2023-05-08T03:33:15;102319.16;;;4.90;74.46
57192;BME280;43052;52.588;13.396;2023-05-08T03:35:45;102303.41;;;4.85;74.79
57192;BME280;43052;52.588;13.396;2023-05-08T03:38:11;102302.59;;;4.86;74.73
57192;BME280;43052;52.588;13.396;2023-05-08T03:40:37;102299.00;;;4.83;75.18
57192;BME280;43052;52.588;13.396;2023-05-08T03:43:10;102288.31;;;4.75;75.14
57192;BME280;43052;52.588;13.396;2023-05-08T03:45:38;102313.88;;;4.87;74.77
57192;BME280;43052;52.588;13.396;2023-05-08T03:48:04;102312.09;;;4.86;75.06
57192;BME280;43052;52.588;13.396;2023-05-08T03:50:30;102288.31;;;4.75;74.88
57192;BME280;43052;52.588;13.396;2023-05-08T03:52:57;102323.53;;;4.91;74.94
57192;BME280;43052;52.588;13.396;2023-05-08T03:55:31;102316.56;;;4.90;74.77
57192;BME280;43052;52.588;13.396;2023-05-08T03:58:12;102324.69;;;4.98;74.95
57192;BME280;43052;52.588;13.396;2023-05-08T04:04:09;102325.53;;;5.18;74.80
57192;BME280;43052;52.588;13.396;2023-05-08T04:09:47;102307.41;;;6.30;73.04
57192;BME280;43052;52.588;13.396;2023-05-08T04:12:30;102322.41;;;7.39;70.40
57192;BME280;43052;52.588;13.396;2023-05-08T04:15:03;102315.84;;;8.07;67.74
57192;BME280;43052;52.588;13.396;2023-05-08T04:17:42;102319.41;;;8.71;66.05
57192;BME280;43052;52.588;13.396;2023-05-08T04:20:13;102322.44;;;9.22;64.95
57192;BME280;43052;52.588;13.396;2023-05-08T04:22:41;102311.78;;;9.87;63.31
57192;BME280;43052;52.588;13.396;2023-05-08T04:25:07;102321.78;;;10.47;61.55
57192;BME280;43052;52.588;13.396;2023-05-08T04:27:34;102322.41;;;10.81;58.93
57192;BME280;43052;52.588;13.396;2023-05-08T04:30:00;102315.81;;;11.03;57.86
57192;BME280;43052;52.588;13.396;2023-05-08T04:32:26;102318.13;;;11.35;57.47
57192;BME280;43052;52.588;13.396;2023-05-08T04:41:32;102324.91;;;12.48;51.24
57192;BME280;43052;52.588;13.396;2023-05-08T04:44:01;102306.50;;;12.42;51.75
57192;BME280;43052;52.588;13.396;2023-05-08T04:47:05;102334.97;;;12.88;50.18
57192;BME280;43052;52.588;13.396;2023-05-08T05:02:38;102327.00;;;13.84;46.49
57192;BME280;43052;52.588;13.396;2023-05-08T05:05:28;102358.75;;;14.22;45.42
57192;BME280;43052;52.588;13.396;2023-05-08T05:12:19;102333.41;;;14.49;44.68
57192;BME280;43052;52.588;13.396;2023-05-08T05:27:06;102367.81;;;15.84;41.24
57192;BME280;43052;52.588;13.396;2023-05-08T05:29:32;102363.41;;;15.80;40.79
57192;BME280;43052;52.588;13.396;2023-05-08T05:31:57;102357.25;;;15.72;41.06
57192;BME280;43052;52.588;13.396;2023-05-08T05:34:22;102366.91;;;15.97;40.43
57192;BME280;43052;52.588;13.396;2023-05-08T05:36:48;102371.31;;;15.95;40.39
57192;BME280;43052;52.588;13.396;2023-05-08T05:39:13;102378.22;;;16.31;39.60
57192;BME280;43052;52.588;13.396;2023-05-08T05:41:38;102350.97;;;16.30;39.53
57192;BME280;43052;52.588;13.396;2023-05-08T05:44:06;102357.91;;;16.50;37.76
57192;BME280;43052;52.588;13.396;2023-05-08T05:46:31;102364.94;;;16.51;38.54
57192;BME280;43052;52.588;13.396;2023-05-08T05:48:57;102365.72;;;16.68;38.25
57192;BME280;43052;52.588;13.396;2023-05-08T05:51:23;102376.00;;;17.19;36.34
57192;BME280;43052;52.588;13.396;2023-05-08T05:53:48;102378.84;;;16.84;37.07
57192;BME280;43052;52.588;13.396;2023-05-08T05:56:13;102384.09;;;16.99;36.40
57192;BME280;43052;52.588;13.396;2023-05-08T05:58:39;102384.88;;;17.09;36.24
57192;BME280;43052;52.588;13.396;2023-05-08T06:01:08;102380.59;;;16.86;36.92
57192;BME280;43052;52.588;13.396;2023-05-08T06:03:34;102389.09;;;17.35;35.88
57192;BME280;43052;52.588;13.396;2023-05-08T06:05:59;102383.72;;;17.44;36.01
57192;BME280;43052;52.588;13.396;2023-05-08T06:08:24;102386.31;;;17.52;35.66
57192;BME280;43052;52.588;13.396;2023-05-08T06:10:49;102393.41;;;17.48;35.52
57192;BME280;43052;52.588;13.396;2023-05-08T06:13:15;102383.91;;;17.22;35.80
57192;BME280;43052;52.588;13.396;2023-05-08T06:15:40;102388.22;;;17.33;35.91
57192;BME280;43052;52.588;13.396;2023-05-08T06:18:05;102387.88;;;17.73;34.91
57192;BME280;43052;52.588;13.396;2023-05-08T06:20:31;102381.94;;;17.49;35.16
57192;BME280;43052;52.588;13.396;2023-05-08T06:22:56;102391.53;;;17.58;34.18
57192;BME280;43052;52.588;13.396;2023-05-08T06:25:21;102380.13;;;17.53;35.06
57192;BME280;43052;52.588;13.396;2023-05-08T06:27:46;102374.97;;;18.28;33.49
57192;BME280;43052;52.588;13.396;2023-05-08T06:30:12;102392.09;;;17.97;33.60
57192;BME280;43052;52.588;13.396;2023-05-08T06:32:37;102384.34;;;17.74;33.74
57192;BME280;43052;52.588;13.396;2023-05-08T06:35:03;102381.59;;;17.82;33.58
57192;BME280;43052;52.588;13.396;2023-05-08T06:37:28;102383.41;;;18.58;33.45
57192;BME280;43052;52.588;13.396;2023-05-08T06:39:53;102358.41;;;19.35;31.83
57192;BME280;43052;52.588;13.396;2023-05-08T06:42:18;102381.78;;;20.13;31.19
57192;BME280;43052;52.588;13.396;2023-05-08T06:44:44;102378.41;;;20.05;30.44
57192;BME280;43052;52.588;13.396;2023-05-08T06:47:09;102385.44;;;19.59;30.66
57192;BME280;43052;52.588;13.396;2023-05-08T06:49:35;102382.31;;;19.34;30.50
57192;BME280;43052;52.588;13.396;2023-05-08T06:52:00;102381.03;;;19.58;30.39
57192;BME280;43052;52.588;13.396;2023-05-08T06:54:26;102385.53;;;20.47;29.57
57192;BME280;43052;52.588;13.396;2023-05-08T06:56:52;102373.78;;;20.57;28.28
57192;BME280;43052;52.588;13.396;2023-05-08T06:59:18;102389.44;;;21.10;27.69
57192;BME280;43052;52.588;13.396;2023-05-08T07:01:43;102383.38;;;21.41;27.57
57192;BME280;43052;52.588;13.396;2023-05-08T07:04:08;102381.28;;;21.17;26.86
57192;BME280;43052;52.588;13.396;2023-05-08T07:06:33;102384.97;;;21.12;27.46
57192;BME280;43052;52.588;13.396;2023-05-08T07:08:59;102384.13;;;21.10;27.62
57192;BME280;43052;52.588;13.396;2023-05-08T07:11:24;102378.75;;;21.12;26.89
57192;BME280;43052;52.588;13.396;2023-05-08T07:13:50;102391.66;;;20.50;27.13
57192;BME280;43052;52.588;13.396;2023-05-08T07:16:18;102373.31;;;19.93;28.28
57192;BME280;43052;52.588;13.396;2023-05-08T07:18:44;102380.00;;;20.14;28.17
57192;BME280;43052;52.588;13.396;2023-05-08T07:21:09;102376.44;;;20.57;27.45
57192;BME280;43052;52.588;13.396;2023-05-08T07:23:35;102370.94;;;20.66;27.67
57192;BME280;43052;52.588;13.396;2023-05-08T07:26:00;102371.09;;;21.70;26.20
57192;BME280;43052;52.588;13.396;2023-05-08T07:28:25;102390.25;;;21.83;25.59
57192;BME280;43052;52.588;13.396;2023-05-08T07:30:51;102387.00;;;21.01;26.18
57192;BME280;43052;52.588;13.396;2023-05-08T07:33:17;102382.72;;;21.32;26.78
57192;BME280;43052;52.588;13.396;2023-05-08T07:35:42;102376.59;;;22.87;24.60
57192;BME280;43052;52.588;13.396;2023-05-08T07:38:08;102371.44;;;23.09;24.68
57192;BME280;43052;52.588;13.396;2023-05-08T07:40:33;102367.97;;;22.79;24.32
57192;BME280;43052;52.588;13.396;2023-05-08T07:42:59;102364.97;;;23.18;24.18
57192;BME280;43052;52.588;13.396;2023-05-08T07:45:24;102370.63;;;24.35;22.87
57192;BME280;43052;52.588;13.396;2023-05-08T07:47:51;102372.13;;;24.43;21.89
57192;BME280;43052;52.588;13.396;2023-05-08T07:50:17;102364.28;;;24.38;22.52
57192;BME280;43052;52.588;13.396;2023-05-08T07:52:42;102372.22;;;24.63;22.16
57192;BME280;43052;52.588;13.396;2023-05-08T07:55:08;102390.16;;;24.83;21.34
57192;BME280;43052;52.588;13.396;2023-05-08T07:57:37;102381.34;;;23.06;22.37
57192;BME280;43052;52.588;13.396;2023-05-08T08:00:07;102385.53;;;22.26;23.63
57192;BME280;43052;52.588;13.396;2023-05-08T08:02:33;102375.69;;;22.60;23.11
57192;BME280;43052;52.588;13.396;2023-05-08T08:04:59;102365.72;;;23.49;21.95
57192;BME280;43052;52.588;13.396;2023-05-08T08:07:27;102369.63;;;23.38;21.75
57192;BME280;43052;52.588;13.396;2023-05-08T08:09:53;102345.66;;;23.62;22.17
57192;BME280;43052;52.588;13.396;2023-05-08T08:12:18;102357.09;;;24.62;21.32
57192;BME280;43052;52.588;13.396;2023-05-08T08:14:54;102343.25;;;24.75;20.97
57192;BME280;43052;52.588;13.396;2023-05-08T08:17:31;102345.22;;;25.14;20.66
57192;BME280;43052;52.588;13.396;2023-05-08T08:27:09;102345.94;;;25.40;19.41
57192;BME280;43052;52.588;13.396;2023-05-08T08:37:20;102340.44;;;26.03;18.18
57192;BME280;43052;52.588;13.396;2023-05-08T08:57:07;102333.16;;;25.46;18.63
57192;BME280;43052;52.588;13.396;2023-05-08T08:59:38;102328.47;;;26.12;17.99
57192;BME280;43052;52.588;13.396;2023-05-08T09:02:09;102330.59;;;25.64;18.80
57192;BME280;43052;52.588;13.396;2023-05-08T09:04:36;102336.22;;;26.74;17.80
57192;BME280;43052;52.588;13.396;2023-05-08T09:07:04;102315.09;;;26.85;17.95
57192;BME280;43052;52.588;13.396;2023-05-08T09:09:34;102311.22;;;27.95;17.37
57192;BME280;43052;52.588;13.396;2023-05-08T09:12:05;102330.72;;;28.16;17.33
57192;BME280;43052;52.588;13.396;2023-05-08T09:14:30;102329.97;;;28.92;15.79
57192;BME280;43052;52.588;13.396;2023-05-08T09:16:58;102316.31;;;28.33;16.67
57192;BME280;43052;52.588;13.396;2023-05-08T09:19:25;102337.22;;;29.06;16.16
57192;BME280;43052;52.588;13.396;2023-05-08T09:21:50;102326.00;;;28.84;16.32
57192;BME280;43052;52.588;13.396;2023-05-08T09:24:15;102326.09;;;28.66;16.87
57192;BME280;43052;52.588;13.396;2023-05-08T09:26:41;102345.81;;;29.13;15.90
57192;BME280;43052;52.588;13.396;2023-05-08T09:32:25;102323.78;;;28.60;16.18
57192;BME280;43052;52.588;13.396;2023-05-08T09:34:57;102305.69;;;29.39;16.28
57192;BME280;43052;52.588;13.396;2023-05-08T09:37:52;102303.50;;;29.60;15.29
57192;BME280;43052;52.588;13.396;2023-05-08T09:40:25;102315.91;;;29.48;15.75
57192;BME280;43052;52.588;13.396;2023-05-08T09:42:51;102302.50;;;29.02;15.39
57192;BME280;43052;52.588;13.396;2023-05-08T09:45:26;102314.41;;;29.28;15.42
57192;BME280;43052;52.588;13.396;2023-05-08T09:47:52;102334.72;;;28.25;15.87
57192;BME280;43052;52.588;13.396;2023-05-08T09:50:23;102310.72;;;27.19;17.01
57192;BME280;43052;52.588;13.396;2023-05-08T09:52:55;102321.28;;;27.58;16.56
57192;BME280;43052;52.588;13.396;2023-05-08T09:58:58;102311.38;;;26.51;17.81
57192;BME280;43052;52.588;13.396;2023-05-08T10:01:32;102307.84;;;26.51;17.39
57192;BME280;43052;52.588;13.396;2023-05-08T10:03:58;102295.22;;;27.42;17.15
57192;BME280;43052;52.588;13.396;2023-05-08T10:06:23;102293.16;;;28.14;16.25
57192;BME280;43052;52.588;13.396;2023-05-08T10:09:05;102294.84;;;26.61;17.31
57192;BME280;43052;52.588;13.396;2023-05-08T10:11:33;102288.78;;;26.74;17.52
57192;BME280;43052;52.588;13.396;2023-05-08T10:13:58;102304.66;;;28.17;16.51
57192;BME280;43052;52.588;13.396;2023-05-08T10:16:25;102304.81;;;27.97;16.10
57192;BME280;43052;52.588;13.396;2023-05-08T10:19:00;102310.06;;;28.17;15.67
57192;BME280;43052;52.588;13.396;2023-05-08T10:21:34;102303.88;;;28.63;15.52
57192;BME280;43052;52.588;13.396;2023-05-08T10:24:04;102305.53;;;28.81;15.54
57192;BME280;43052;52.588;13.396;2023-05-08T10:26:30;102286.34;;;29.02;14.55
57192;BME280;43052;52.588;13.396;2023-05-08T10:28:57;102298.50;;;28.63;15.51
57192;BME280;43052;52.588;13.396;2023-05-08T10:31:27;102296.94;;;29.05;15.20
57192;BME280;43052;52.588;13.396;2023-05-08T10:33:54;102290.44;;;29.09;15.04
57192;BME280;43052;52.588;13.396;2023-05-08T10:36:22;102296.25;;;28.39;15.42
57192;BME280;43052;52.588;13.396;2023-05-08T11:06:43;102276.03;;;16.56;29.23
57192;BME280;43052;52.588;13.396;2023-05-08T11:09:17;102279.47;;;16.69;28.92
57192;BME280;43052;52.588;13.396;2023-05-08T11:11:55;102280.34;;;16.66;28.08
57192;BME280;43052;52.588;13.396;2023-05-08T11:14:22;102284.91;;;16.38;28.79
57192;BME280;43052;52.588;13.396;2023-05-08T11:19:27;102291.28;;;16.00;29.50
57192;BME280;43052;52.588;13.396;2023-05-08T11:24:38;102278.91;;;16.09;29.05
57192;BME280;43052;52.588;13.396;2023-05-08T11:27:04;102280.63;;;16.17;29.41
57192;BME280;43052;52.588;13.396;2023-05-08T11:29:29;102282.38;;;16.25;29.20
57192;BME280;43052;52.588;13.396;2023-05-08T11:31:54;102275.31;;;16.29;28.74
57192;BME280;43052;52.588;13.396;2023-05-08T11:37:22;102285.94;;;16.12;28.41
57192;BME280;43052;52.588;13.396;2023-05-08T11:39:48;102276.28;;;16.06;29.09
57192;BME280;43052;52.588;13.396;2023-05-08T11:44:48;102280.53;;;16.35;28.79
57192;BME280;43052;52.588;13.396;2023-05-08T11:47:17;102269.06;;;16.42;28.41
57192;BME280;43052;52.588;13.396;2023-05-08T11:49:42;102261.13;;;16.44;28.82
57192;BME280;43052;52.588;13.396;2023-05-08T11:52:08;102258.41;;;16.59;27.87
57192;BME280;43052;52.588;13.396;2023-05-08T11:54:33;102252.22;;;16.62;29.18
57192;BME280;43052;52.588;13.396;2023-05-08T11:56:58;102249.63;;;16.50;29.36
57192;BME280;43052;52.588;13.396;2023-05-08T11:59:24;102249.63;;;16.53;30.06
57192;BME280;43052;52.588;13.396;2023-05-08T12:01:49;102245.22;;;16.55;29.86
57192;BME280;43052;52.588;13.396;2023-05-08T12:04:16;102250.44;;;16.61;29.54
57192;BME280;43052;52.588;13.396;2023-05-08T12:06:41;102256.53;;;16.72;29.51
57192;BME280;43052;52.588;13.396;2023-05-08T12:09:15;102247.66;;;16.83;30.44
57192;BME280;43052;52.588;13.396;2023-05-08T12:11:41;102237.91;;;16.89;31.33
57192;BME280;43052;52.588;13.396;2023-05-08T12:14:10;102240.53;;;16.97;29.94
57192;BME280;43052;52.588;13.396;2023-05-08T12:16:36;102246.69;;;16.99;28.49
57192;BME280;43052;52.588;13.396;2023-05-08T12:19:10;102235.19;;;17.05;28.50
57192;BME280;43052;52.588;13.396;2023-05-08T12:21:35;102246.56;;;17.10;27.64
57192;BME280;43052;52.588;13.396;2023-05-08T12:24:04;102247.56;;;16.98;27.02
57192;BME280;43052;52.588;13.396;2023-05-08T12:26:33;102237.06;;;16.84;27.44
57192;BME280;43052;52.588;13.396;2023-05-08T12:28:59;102234.38;;;16.90;27.67
57192;BME280;43052;52.588;13.396;2023-05-08T12:31:24;102232.56;;;16.99;28.98
57192;BME280;43052;52.588;13.396;2023-05-08T12:33:51;102227.19;;;17.08;28.96
57192;BME280;43052;52.588;13.396;2023-05-08T12:36:17;102225.44;;;17.10;28.09
57192;BME280;43052;52.588;13.396;2023-05-08T12:38:42;102218.34;;;17.14;27.65
57192;BME280;43052;52.588;13.396;2023-05-08T12:41:07;102213.88;;;17.20;27.69
57192;BME280;43052;52.588;13.396;2023-05-08T12:43:35;102217.28;;;17.32;27.63
57192;BME280;43052;52.588;13.396;2023-05-08T12:46:02;102216.44;;;17.30;27.61
57192;BME280;43052;52.588;13.396;2023-05-08T12:48:35;102212.09;;;17.22;26.33
57192;BME280;43052;52.588;13.396;2023-05-08T12:51:03;102219.13;;;17.23;27.13
57192;BME280;43052;52.588;13.396;2023-05-08T12:53:30;102217.44;;;17.18;27.14
57192;BME280;43052;52.588;13.396;2023-05-08T12:55:59;102206.09;;;17.05;27.21
57192;BME280;43052;52.588;13.396;2023-05-08T12:58:26;102207.00;;;17.02;28.13
57192;BME280;43052;52.588;13.396;2023-05-08T13:00:53;102214.84;;;17.13;29.16
57192;BME280;43052;52.588;13.396;2023-05-08T13:03:28;102222.69;;;17.22;29.61
57192;BME280;43052;52.588;13.396;2023-05-08T13:05:55;102214.66;;;17.30;27.99
57192;BME280;43052;52.588;13.396;2023-05-08T13:08:28;102198.69;;;17.39;27.73
57192;BME280;43052;52.588;13.396;2023-05-08T13:10:55;102202.13;;;17.46;27.39
57192;BME280;43052;52.588;13.396;2023-05-08T13:13:22;102195.91;;;17.50;27.41
57192;BME280;43052;52.588;13.396;2023-05-08T13:15:48;102207.31;;;17.56;27.06
57192;BME280;43052;52.588;13.396;2023-05-08T13:18:14;102193.38;;;17.43;26.67
57192;BME280;43052;52.588;13.396;2023-05-08T13:20:40;102199.59;;;17.37;27.00
57192;BME280;43052;52.588;13.396;2023-05-08T13:23:05;102180.13;;;17.44;27.10
57192;BME280;43052;52.588;13.396;2023-05-08T13:25:31;102172.16;;;17.47;26.92
57192;BME280;43052;52.588;13.396;2023-05-08T13:27:57;102172.09;;;17.52;27.30
57192;BME280;43052;52.588;13.396;2023-05-08T13:30:23;102160.59;;;17.54;27.38
57192;BME280;43052;52.588;13.396;2023-05-08T13:32:49;102185.22;;;17.60;26.40
57192;BME280;43052;52.588;13.396;2023-05-08T13:35:16;102162.38;;;17.56;27.62
57192;BME280;43052;52.588;13.396;2023-05-08T13:37:41;102164.06;;;17.60;28.73
57192;BME280;43052;52.588;13.396;2023-05-08T13:40:07;102172.00;;;17.61;28.14
57192;BME280;43052;52.588;13.396;2023-05-08T13:42:32;102146.41;;;17.62;26.40
57192;BME280;43052;52.588;13.396;2023-05-08T13:44:58;102158.63;;;17.72;26.50
57192;BME280;43052;52.588;13.396;2023-05-08T13:47:23;102161.16;;;17.81;28.14
57192;BME280;43052;52.588;13.396;2023-05-08T13:49:48;102148.00;;;17.74;29.17
57192;BME280;43052;52.588;13.396;2023-05-08T13:52:14;102146.25;;;17.74;28.90
57192;BME280;43052;52.588;13.396;2023-05-08T13:54:39;102131.28;;;17.73;27.17
57192;BME280;43052;52.588;13.396;2023-05-08T13:57:05;102144.56;;;17.68;27.52
57192;BME280;43052;52.588;13.396;2023-05-08T13:59:30;102130.53;;;17.62;28.51
57192;BME280;43052;52.588;13.396;2023-05-08T14:01:56;102133.88;;;17.75;28.84
57192;BME280;43052;52.588;13.396;2023-05-08T14:04:21;102133.72;;;17.85;29.09
57192;BME280;43052;52.588;13.396;2023-05-08T14:06:47;102132.00;;;17.83;29.03
57192;BME280;43052;52.588;13.396;2023-05-08T14:09:12;102129.44;;;17.78;29.59
57192;BME280;43052;52.588;13.396;2023-05-08T14:11:38;102122.47;;;17.71;28.81
57192;BME280;43052;52.588;13.396;2023-05-08T14:14:03;102126.06;;;17.65;29.17
57192;BME280;43052;52.588;13.396;2023-05-08T14:16:29;102135.75;;;17.68;29.43
57192;BME280;43052;52.588;13.396;2023-05-08T14:18:54;102126.91;;;17.70;29.28
57192;BME280;43052;52.588;13.396;2023-05-08T14:21:19;102135.78;;;17.65;28.86
57192;BME280;43052;52.588;13.396;2023-05-08T14:23:45;102135.78;;;17.65;29.72
57192;BME280;43052;52.588;13.396;2023-05-08T14:26:10;102131.44;;;17.62;29.29
57192;BME280;43052;52.588;13.396;2023-05-08T14:28:35;102120.84;;;17.62;28.83
57192;BME280;43052;52.588;13.396;2023-05-08T14:31:00;102119.13;;;17.58;28.25
57192;BME280;43052;52.588;13.396;2023-05-08T14:33:26;102112.97;;;17.56;28.42
57192;BME280;43052;52.588;13.396;2023-05-08T14:35:51;102110.38;;;17.54;28.66
57192;BME280;43052;52.588;13.396;2023-05-08T14:38:16;102113.84;;;17.58;29.10
57192;BME280;43052;52.588;13.396;2023-05-08T14:40:41;102107.63;;;17.61;28.76
57192;BME280;43052;52.588;13.396;2023-05-08T14:43:07;102105.03;;;17.56;28.48
57192;BME280;43052;52.588;13.396;2023-05-08T14:45:32;102110.38;;;17.54;29.00
57192;BME280;43052;52.588;13.396;2023-05-08T14:47:58;102107.72;;;17.54;29.33
57192;BME280;43052;52.588;13.396;2023-05-08T14:50:23;102096.28;;;17.52;29.11
57192;BME280;43052;52.588;13.396;2023-05-08T14:52:49;102114.75;;;17.56;28.99
57192;BME280;43052;52.588;13.396;2023-05-08T14:55:14;102106.78;;;17.57;28.97
57192;BME280;43052;52.588;13.396;2023-05-08T14:57:48;102121.75;;;17.61;28.25
57192;BME280;43052;52.588;13.396;2023-05-08T15:00:14;102106.84;;;17.54;28.82
57192;BME280;43052;52.588;13.396;2023-05-08T15:02:39;102109.50;;;17.54;28.82
57192;BME280;43052;52.588;13.396;2023-05-08T15:05:05;102126.25;;;17.53;28.74